sensor_id;sensor_type;location;lat;lon;timestamp;P1;durP1;ratioP1;P2;durP2;ratioP2
15061;SDS011;7630;50.306;8.566;2023-11-19T00:01:49;11.93;;;10.83;;
15061;SDS011;7630;50.306;8.566;2023-11-19T00:05:51;13.23;;;11.93;;
15061;SDS011;7630;50.306;8.566;2023-11-19T00:09:52;13.73;;;12.33;;
15061;SDS011;7630;50.306;8.566;2023-11-19T00:13:53;13.87;;;12.63;;
15061;SDS011;7630;50.306;8.566;2023-11-19T00:17:54;13.57;;;12.17;;
15061;SDS011;7630;50.306;8.566;2023-11-19T00:21:56;13.57;;;12.40;;
15061;SDS011;7630;50.306;8.566;2023-11-19T00:25:57;14.30;;;13.00;;
15061;SDS011;7630;50.306;8.566;2023-11-19T00:29:59;16.00;;;14.50;;
15061;SDS011;7630;50.306;8.566;2023-11-19T00:34:00;14.53;;;13.23;;
15061;SDS011;7630;50.306;8.566;2023-11-19T00:38:02;16.00;;;13.33;;
15061;SDS011;7630;50.306;8.566;2023-11-19T00:42:04;15.10;;;13.73;;
15061;SDS011;7630;50.306;8.566;2023-11-19T00:46:07;14.37;;;13.00;;
15061;SDS011;7630;50.306;8.566;2023-11-19T00:50:08;13.53;;;12.33;;
15061;SDS011;7630;50.306;8.566;2023-11-19T00:54:10;13.83;;;12.43;;
15061;SDS011;7630;50.306;8.566;2023-11-19T00:58:11;11.73;;;10.63;;
15061;SDS011;7630;50.306;8.566;2023-11-19T01:02:12;11.13;;;9.97;;
15061;SDS011;7630;50.306;8.566;2023-11-19T01:06:15;9.50;;;8.60;;
15061;SDS011;7630;50.306;8.566;2023-11-19T01:10:16;10.47;;;9.43;;
15061;SDS011;7630;50.306;8.566;2023-11-19T01:14:19;9.37;;;8.47;;
15061;SDS011;7630;50.306;8.566;2023-11-19T01:18:20;7.30;;;6.70;;
15061;SDS011;7630;50.306;8.566;2023-11-19T01:22:21;7.20;;;6.60;;
15061;SDS011;7630;50.306;8.566;2023-11-19T01:26:24;7.60;;;6.77;;
15061;SDS011;7630;50.306;8.566;2023-11-19T01:30:25;7.87;;;7.17;;
15061;SDS011;7630;50.306;8.566;2023-11-19T01:34:27;10.67;;;9.77;;
15061;SDS011;7630;50.306;8.566;2023-11-19T01:38:28;11.57;;;10.57;;
15061;SDS011;7630;50.306;8.566;2023-11-19T01:42:29;12.37;;;11.27;;
15061;SDS011;7630;50.306;8.566;2023-11-19T01:46:30;13.83;;;12.53;;
15061;SDS011;7630;50.306;8.566;2023-11-19T01:50:33;13.63;;;12.40;;
15061;SDS011;7630;50.306;8.566;2023-11-19T01:54:34;12.63;;;11.43;;
15061;SDS011;7630;50.306;8.566;2023-11-19T01:58:36;9.43;;;8.73;;
15061;SDS011;7630;50.306;8.566;2023-11-19T02:02:37;12.40;;;11.10;;
15061;SDS011;7630;50.306;8.566;2023-11-19T02:06:40;13.47;;;12.20;;
15061;SDS011;7630;50.306;8.566;2023-11-19T02:10:43;13.60;;;12.27;;
15061;SDS011;7630;50.306;8.566;2023-11-19T02:14:44;14.80;;;13.60;;
15061;SDS011;7630;50.306;8.566;2023-11-19T02:18:45;13.77;;;12.47;;
15061;SDS011;7630;50.306;8.566;2023-11-19T02:22:47;16.83;;;15.30;;
15061;SDS011;7630;50.306;8.566;2023-11-19T02:26:51;17.53;;;15.77;;
15061;SDS011;7630;50.306;8.566;2023-11-19T02:30:53;16.97;;;15.27;;
15061;SDS011;7630;50.306;8.566;2023-11-19T02:34:54;17.83;;;15.73;;
15061;SDS011;7630;50.306;8.566;2023-11-19T02:38:58;16.37;;;14.70;;
15061;SDS011;7630;50.306;8.566;2023-11-19T02:42:59;18.40;;;16.63;;
15061;SDS011;7630;50.306;8.566;2023-11-19T02:47:00;23.33;;;17.70;;
15061;SDS011;7630;50.306;8.566;2023-11-19T02:51:03;23.77;;;18.00;;
15061;SDS011;7630;50.306;8.566;2023-11-19T02:55:05;19.13;;;16.57;;
15061;SDS011;7630;50.306;8.566;2023-11-19T02:59:10;20.23;;;18.10;;
15061;SDS011;7630;50.306;8.566;2023-11-19T03:03:13;20.33;;;18.00;;
15061;SDS011;7630;50.306;8.566;2023-11-19T03:07:22;16.93;;;15.23;;
15061;SDS011;7630;50.306;8.566;2023-11-19T03:11:23;16.93;;;14.23;;
15061;SDS011;7630;50.306;8.566;2023-11-19T03:15:25;13.60;;;12.23;;
15061;SDS011;7630;50.306;8.566;2023-11-19T03:19:26;13.83;;;12.43;;
15061;SDS011;7630;50.306;8.566;2023-11-19T03:23:27;7.30;;;6.60;;
15061;SDS011;7630;50.306;8.566;2023-11-19T03:27:28;4.13;;;3.73;;
15061;SDS011;7630;50.306;8.566;2023-11-19T03:31:30;1.87;;;1.73;;
15061;SDS011;7630;50.306;8.566;2023-11-19T03:35:31;1.80;;;1.70;;
15061;SDS011;7630;50.306;8.566;2023-11-19T03:39:33;1.93;;;1.83;;
15061;SDS011;7630;50.306;8.566;2023-11-19T03:43:35;1.73;;;1.63;;
15061;SDS011;7630;50.306;8.566;2023-11-19T03:47:36;0.97;;;0.90;;
15061;SDS011;7630;50.306;8.566;2023-11-19T03:51:37;1.00;;;1.00;;
15061;SDS011;7630;50.306;8.566;2023-11-19T03:55:38;1.20;;;1.20;;
15061;SDS011;7630;50.306;8.566;2023-11-19T03:59:39;0.80;;;0.80;;
15061;SDS011;7630;50.306;8.566;2023-11-19T04:03:40;0.70;;;0.70;;
15061;SDS011;7630;50.306;8.566;2023-11-19T04:07:43;2.60;;;0.67;;
15061;SDS011;7630;50.306;8.566;2023-11-19T04:11:44;0.83;;;0.30;;
15061;SDS011;7630;50.306;8.566;2023-11-19T04:15:49;0.63;;;0.63;;
15061;SDS011;7630;50.306;8.566;2023-11-19T04:19:50;1.27;;;0.63;;
15061;SDS011;7630;50.306;8.566;2023-11-19T04:23:51;0.67;;;0.67;;
15061;SDS011;7630;50.306;8.566;2023-11-19T04:27:52;0.63;;;0.50;;
15061;SDS011;7630;50.306;8.566;2023-11-19T04:31:54;0.80;;;0.80;;
15061;SDS011;7630;50.306;8.566;2023-11-19T04:35:55;1.07;;;0.70;;
15061;SDS011;7630;50.306;8.566;2023-11-19T04:39:56;1.60;;;0.50;;
15061;SDS011;7630;50.306;8.566;2023-11-19T04:43:57;0.53;;;0.53;;
15061;SDS011;7630;50.306;8.566;2023-11-19T04:47:58;1.70;;;0.50;;
15061;SDS011;7630;50.306;8.566;2023-11-19T04:52:00;0.60;;;0.40;;
15061;SDS011;7630;50.306;8.566;2023-11-19T04:56:01;0.30;;;0.30;;
15061;SDS011;7630;50.306;8.566;2023-11-19T05:00:11;0.60;;;0.50;;
15061;SDS011;7630;50.306;8.566;2023-11-19T05:04:14;0.40;;;0.40;;
15061;SDS011;7630;50.306;8.566;2023-11-19T05:08:16;0.20;;;0.20;;
15061;SDS011;7630;50.306;8.566;2023-11-19T05:12:17;0.30;;;0.30;;
15061;SDS011;7630;50.306;8.566;2023-11-19T05:16:18;0.33;;;0.33;;
15061;SDS011;7630;50.306;8.566;2023-11-19T05:20:19;0.40;;;0.40;;
15061;SDS011;7630;50.306;8.566;2023-11-19T05:24:20;0.37;;;0.37;;
15061;SDS011;7630;50.306;8.566;2023-11-19T05:28:22;1.80;;;0.50;;
15061;SDS011;7630;50.306;8.566;2023-11-19T05:32:25;0.70;;;0.70;;
15061;SDS011;7630;50.306;8.566;2023-11-19T05:36:26;1.63;;;0.70;;
15061;SDS011;7630;50.306;8.566;2023-11-19T05:40:28;1.33;;;0.60;;
15061;SDS011;7630;50.306;8.566;2023-11-19T05:44:29;1.97;;;0.80;;
15061;SDS011;7630;50.306;8.566;2023-11-19T05:48:31;1.00;;;0.70;;
15061;SDS011;7630;50.306;8.566;2023-11-19T05:52:32;0.40;;;0.40;;
15061;SDS011;7630;50.306;8.566;2023-11-19T05:56:34;1.10;;;0.67;;
15061;SDS011;7630;50.306;8.566;2023-11-19T06:00:35;0.60;;;0.60;;
15061;SDS011;7630;50.306;8.566;2023-11-19T06:04:37;0.63;;;0.63;;
15061;SDS011;7630;50.306;8.566;2023-11-19T06:08:38;1.50;;;1.20;;
15061;SDS011;7630;50.306;8.566;2023-11-19T06:12:39;1.70;;;1.07;;
15061;SDS011;7630;50.306;8.566;2023-11-19T06:16:41;1.30;;;1.20;;
15061;SDS011;7630;50.306;8.566;2023-11-19T06:20:43;2.70;;;1.07;;
15061;SDS011;7630;50.306;8.566;2023-11-19T06:24:44;1.80;;;1.17;;
15061;SDS011;7630;50.306;8.566;2023-11-19T06:28:45;2.03;;;1.20;;
15061;SDS011;7630;50.306;8.566;2023-11-19T06:32:47;2.23;;;1.67;;
15061;SDS011;7630;50.306;8.566;2023-11-19T06:36:48;2.57;;;1.60;;
15061;SDS011;7630;50.306;8.566;2023-11-19T06:40:49;2.73;;;1.40;;
15061;SDS011;7630;50.306;8.566;2023-11-19T06:44:52;1.30;;;1.20;;
15061;SDS011;7630;50.306;8.566;2023-11-19T06:48:53;3.00;;;1.60;;
15061;SDS011;7630;50.306;8.566;2023-11-19T06:52:54;1.50;;;1.13;;
15061;SDS011;7630;50.306;8.566;2023-11-19T06:56:55;1.30;;;1.10;;
15061;SDS011;7630;50.306;8.566;2023-11-19T07:00:57;1.33;;;1.23;;
15061;SDS011;7630;50.306;8.566;2023-11-19T07:04:59;1.93;;;1.73;;
15061;SDS011;7630;50.306;8.566;2023-11-19T07:09:01;3.83;;;1.90;;
15061;SDS011;7630;50.306;8.566;2023-11-19T07:13:08;2.30;;;1.53;;
15061;SDS011;7630;50.306;8.566;2023-11-19T07:17:09;4.10;;;1.83;;
15061;SDS011;7630;50.306;8.566;2023-11-19T07:21:11;3.33;;;1.73;;
15061;SDS011;7630;50.306;8.566;2023-11-19T07:25:15;3.43;;;1.70;;
15061;SDS011;7630;50.306;8.566;2023-11-19T07:29:16;1.60;;;1.50;;
15061;SDS011;7630;50.306;8.566;2023-11-19T07:33:19;4.50;;;2.27;;
15061;SDS011;7630;50.306;8.566;2023-11-19T07:37:20;3.63;;;2.00;;
15061;SDS011;7630;50.306;8.566;2023-11-19T07:41:22;2.10;;;1.70;;
15061;SDS011;7630;50.306;8.566;2023-11-19T07:45:23;1.70;;;1.60;;
15061;SDS011;7630;50.306;8.566;2023-11-19T07:49:24;2.57;;;1.73;;
15061;SDS011;7630;50.306;8.566;2023-11-19T07:53:25;6.07;;;2.87;;
15061;SDS011;7630;50.306;8.566;2023-11-19T07:57:26;7.47;;;3.03;;
15061;SDS011;7630;50.306;8.566;2023-11-19T08:01:29;3.77;;;1.70;;
15061;SDS011;7630;50.306;8.566;2023-11-19T08:05:30;11.07;;;3.33;;
15061;SDS011;7630;50.306;8.566;2023-11-19T08:09:31;10.83;;;2.37;;
15061;SDS011;7630;50.306;8.566;2023-11-19T08:13:33;8.83;;;2.77;;
15061;SDS011;7630;50.306;8.566;2023-11-19T08:17:34;5.50;;;2.97;;
15061;SDS011;7630;50.306;8.566;2023-11-19T08:21:35;6.23;;;2.30;;
15061;SDS011;7630;50.306;8.566;2023-11-19T08:25:36;8.17;;;2.53;;
15061;SDS011;7630;50.306;8.566;2023-11-19T08:29:37;10.40;;;2.63;;
15061;SDS011;7630;50.306;8.566;2023-11-19T08:33:38;6.20;;;1.97;;
15061;SDS011;7630;50.306;8.566;2023-11-19T08:37:39;8.73;;;2.40;;
15061;SDS011;7630;50.306;8.566;2023-11-19T08:41:41;7.13;;;2.60;;
15061;SDS011;7630;50.306;8.566;2023-11-19T08:45:42;8.03;;;2.47;;
15061;SDS011;7630;50.306;8.566;2023-11-19T08:49:44;7.77;;;3.00;;
15061;SDS011;7630;50.306;8.566;2023-11-19T08:53:46;8.67;;;3.13;;
15061;SDS011;7630;50.306;8.566;2023-11-19T08:57:47;6.13;;;2.77;;
15061;SDS011;7630;50.306;8.566;2023-11-19T09:01:48;9.40;;;2.90;;
15061;SDS011;7630;50.306;8.566;2023-11-19T09:05:49;11.47;;;3.60;;
15061;SDS011;7630;50.306;8.566;2023-11-19T09:09:50;9.00;;;2.47;;
15061;SDS011;7630;50.306;8.566;2023-11-19T09:13:51;10.20;;;3.20;;
15061;SDS011;7630;50.306;8.566;2023-11-19T09:17:53;6.57;;;2.50;;
15061;SDS011;7630;50.306;8.566;2023-11-19T09:21:54;8.63;;;3.20;;
15061;SDS011;7630;50.306;8.566;2023-11-19T09:25:55;6.33;;;3.27;;
15061;SDS011;7630;50.306;8.566;2023-11-19T09:29:56;7.97;;;2.50;;
15061;SDS011;7630;50.306;8.566;2023-11-19T09:33:59;7.60;;;3.73;;
15061;SDS011;7630;50.306;8.566;2023-11-19T09:38:00;9.97;;;3.00;;
15061;SDS011;7630;50.306;8.566;2023-11-19T09:42:03;12.20;;;4.77;;
15061;SDS011;7630;50.306;8.566;2023-11-19T09:46:05;8.27;;;2.67;;
15061;SDS011;7630;50.306;8.566;2023-11-19T09:50:08;8.83;;;3.10;;
15061;SDS011;7630;50.306;8.566;2023-11-19T09:54:11;10.67;;;2.90;;
15061;SDS011;7630;50.306;8.566;2023-11-19T09:58:13;8.87;;;3.07;;
15061;SDS011;7630;50.306;8.566;2023-11-19T10:02:15;15.37;;;4.83;;
15061;SDS011;7630;50.306;8.566;2023-11-19T10:06:18;10.53;;;2.63;;
15061;SDS011;7630;50.306;8.566;2023-11-19T10:10:19;11.93;;;3.47;;
15061;SDS011;7630;50.306;8.566;2023-11-19T10:14:22;8.93;;;3.13;;
15061;SDS011;7630;50.306;8.566;2023-11-19T10:18:27;14.47;;;2.97;;
15061;SDS011;7630;50.306;8.566;2023-11-19T10:22:28;9.83;;;3.43;;
15061;SDS011;7630;50.306;8.566;2023-11-19T10:26:30;12.33;;;3.33;;
15061;SDS011;7630;50.306;8.566;2023-11-19T10:30:31;10.10;;;2.80;;
15061;SDS011;7630;50.306;8.566;2023-11-19T10:34:34;10.17;;;3.87;;
15061;SDS011;7630;50.306;8.566;2023-11-19T10:38:38;15.00;;;5.00;;
15061;SDS011;7630;50.306;8.566;2023-11-19T10:42:41;10.20;;;3.63;;
15061;SDS011;7630;50.306;8.566;2023-11-19T10:46:42;7.50;;;2.90;;
15061;SDS011;7630;50.306;8.566;2023-11-19T10:50:45;10.73;;;4.03;;
15061;SDS011;7630;50.306;8.566;2023-11-19T10:54:49;13.57;;;3.40;;
15061;SDS011;7630;50.306;8.566;2023-11-19T10:58:52;9.40;;;4.50;;
15061;SDS011;7630;50.306;8.566;2023-11-19T11:02:56;7.77;;;3.10;;
15061;SDS011;7630;50.306;8.566;2023-11-19T11:07:03;11.23;;;3.27;;
15061;SDS011;7630;50.306;8.566;2023-11-19T11:11:05;11.63;;;2.77;;
15061;SDS011;7630;50.306;8.566;2023-11-19T11:15:08;11.17;;;3.20;;
15061;SDS011;7630;50.306;8.566;2023-11-19T11:19:13;13.70;;;3.50;;
15061;SDS011;7630;50.306;8.566;2023-11-19T11:36:17;17.27;;;4.00;;
15061;SDS011;7630;50.306;8.566;2023-11-19T11:40:21;12.50;;;5.07;;
15061;SDS011;7630;50.306;8.566;2023-11-19T11:44:57;10.53;;;3.73;;
15061;SDS011;7630;50.306;8.566;2023-11-19T11:48:46;16.23;;;4.30;;
15061;SDS011;7630;50.306;8.566;2023-11-19T11:57:08;8.00;;;3.07;;
15061;SDS011;7630;50.306;8.566;2023-11-19T12:01:14;9.03;;;3.83;;
15061;SDS011;7630;50.306;8.566;2023-11-19T12:05:17;17.90;;;4.67;;
15061;SDS011;7630;50.306;8.566;2023-11-19T12:09:19;12.77;;;5.63;;
15061;SDS011;7630;50.306;8.566;2023-11-19T12:13:20;13.47;;;4.07;;
15061;SDS011;7630;50.306;8.566;2023-11-19T12:21:37;12.13;;;4.30;;
15061;SDS011;7630;50.306;8.566;2023-11-19T12:25:39;11.73;;;3.60;;
15061;SDS011;7630;50.306;8.566;2023-11-19T12:29:43;10.50;;;3.53;;
15061;SDS011;7630;50.306;8.566;2023-11-19T12:33:45;12.90;;;3.90;;
15061;SDS011;7630;50.306;8.566;2023-11-19T12:37:47;6.83;;;2.80;;
15061;SDS011;7630;50.306;8.566;2023-11-19T12:41:50;12.40;;;3.43;;
15061;SDS011;7630;50.306;8.566;2023-11-19T12:45:54;10.87;;;2.90;;
15061;SDS011;7630;50.306;8.566;2023-11-19T12:49:56;11.40;;;3.20;;
15061;SDS011;7630;50.306;8.566;2023-11-19T12:53:58;12.43;;;4.63;;
15061;SDS011;7630;50.306;8.566;2023-11-19T12:57:59;10.17;;;3.33;;
15061;SDS011;7630;50.306;8.566;2023-11-19T13:02:00;9.53;;;3.40;;
15061;SDS011;7630;50.306;8.566;2023-11-19T13:06:04;6.73;;;3.40;;
15061;SDS011;7630;50.306;8.566;2023-11-19T13:10:08;11.50;;;3.03;;
15061;SDS011;7630;50.306;8.566;2023-11-19T13:14:10;7.50;;;2.77;;
15061;SDS011;7630;50.306;8.566;2023-11-19T13:18:12;7.63;;;3.00;;
15061;SDS011;7630;50.306;8.566;2023-11-19T13:22:15;5.67;;;2.43;;
15061;SDS011;7630;50.306;8.566;2023-11-19T13:26:17;8.17;;;3.17;;
15061;SDS011;7630;50.306;8.566;2023-11-19T13:30:18;11.50;;;3.90;;
15061;SDS011;7630;50.306;8.566;2023-11-19T13:34:21;8.43;;;2.77;;
15061;SDS011;7630;50.306;8.566;2023-11-19T13:38:22;7.87;;;2.20;;
15061;SDS011;7630;50.306;8.566;2023-11-19T13:42:25;7.13;;;2.77;;
15061;SDS011;7630;50.306;8.566;2023-11-19T13:46:26;9.27;;;2.87;;
15061;SDS011;7630;50.306;8.566;2023-11-19T13:50:27;6.00;;;2.97;;
15061;SDS011;7630;50.306;8.566;2023-11-19T13:54:29;12.20;;;4.70;;
15061;SDS011;7630;50.306;8.566;2023-11-19T13:58:31;8.00;;;2.07;;
15061;SDS011;7630;50.306;8.566;2023-11-19T14:02:32;9.33;;;2.90;;
15061;SDS011;7630;50.306;8.566;2023-11-19T14:06:34;6.60;;;2.90;;
15061;SDS011;7630;50.306;8.566;2023-11-19T14:10:35;11.00;;;2.90;;
15061;SDS011;7630;50.306;8.566;2023-11-19T14:14:37;6.60;;;2.70;;
15061;SDS011;7630;50.306;8.566;2023-11-19T14:18:38;12.00;;;3.10;;
15061;SDS011;7630;50.306;8.566;2023-11-19T14:22:42;9.43;;;3.20;;
15061;SDS011;7630;50.306;8.566;2023-11-19T14:26:45;4.27;;;2.10;;
15061;SDS011;7630;50.306;8.566;2023-11-19T14:30:47;9.67;;;2.87;;
15061;SDS011;7630;50.306;8.566;2023-11-19T14:34:51;13.47;;;3.67;;
15061;SDS011;7630;50.306;8.566;2023-11-19T14:38:52;9.03;;;3.00;;
15061;SDS011;7630;50.306;8.566;2023-11-19T14:42:54;11.37;;;2.97;;
15061;SDS011;7630;50.306;8.566;2023-11-19T14:46:55;7.60;;;3.03;;
15061;SDS011;7630;50.306;8.566;2023-11-19T14:50:57;8.17;;;2.40;;
15061;SDS011;7630;50.306;8.566;2023-11-19T14:54:58;9.23;;;3.33;;
15061;SDS011;7630;50.306;8.566;2023-11-19T14:58:59;9.77;;;2.50;;
15061;SDS011;7630;50.306;8.566;2023-11-19T15:03:00;10.33;;;2.70;;
15061;SDS011;7630;50.306;8.566;2023-11-19T15:07:01;13.83;;;3.70;;
15061;SDS011;7630;50.306;8.566;2023-11-19T15:11:05;13.13;;;3.97;;
15061;SDS011;7630;50.306;8.566;2023-11-19T15:15:07;8.57;;;3.47;;
15061;SDS011;7630;50.306;8.566;2023-11-19T15:19:14;9.77;;;2.90;;
15061;SDS011;7630;50.306;8.566;2023-11-19T15:23:15;11.07;;;3.20;;
15061;SDS011;7630;50.306;8.566;2023-11-19T15:27:16;5.50;;;2.50;;
15061;SDS011;7630;50.306;8.566;2023-11-19T15:31:18;6.30;;;2.83;;
15061;SDS011;7630;50.306;8.566;2023-11-19T15:35:19;15.30;;;3.63;;
15061;SDS011;7630;50.306;8.566;2023-11-19T15:39:20;13.27;;;3.90;;
15061;SDS011;7630;50.306;8.566;2023-11-19T15:43:22;7.23;;;3.57;;
15061;SDS011;7630;50.306;8.566;2023-11-19T15:47:23;10.50;;;3.50;;
15061;SDS011;7630;50.306;8.566;2023-11-19T15:51:24;9.83;;;3.93;;
15061;SDS011;7630;50.306;8.566;2023-11-19T15:55:25;10.93;;;3.87;;
15061;SDS011;7630;50.306;8.566;2023-11-19T15:59:26;7.97;;;2.57;;
15061;SDS011;7630;50.306;8.566;2023-11-19T16:03:27;8.00;;;3.30;;
15061;SDS011;7630;50.306;8.566;2023-11-19T16:07:30;13.83;;;3.20;;
15061;SDS011;7630;50.306;8.566;2023-11-19T16:11:32;10.33;;;3.30;;
15061;SDS011;7630;50.306;8.566;2023-11-19T16:15:36;8.97;;;4.50;;
15061;SDS011;7630;50.306;8.566;2023-11-19T16:19:38;10.23;;;2.97;;
15061;SDS011;7630;50.306;8.566;2023-11-19T16:23:40;9.70;;;3.00;;
15061;SDS011;7630;50.306;8.566;2023-11-19T16:27:41;7.60;;;2.87;;
15061;SDS011;7630;50.306;8.566;2023-11-19T16:31:43;10.03;;;3.67;;
15061;SDS011;7630;50.306;8.566;2023-11-19T16:35:44;6.53;;;3.13;;
15061;SDS011;7630;50.306;8.566;2023-11-19T16:39:46;10.40;;;3.07;;
15061;SDS011;7630;50.306;8.566;2023-11-19T16:43:47;13.17;;;3.63;;
15061;SDS011;7630;50.306;8.566;2023-11-19T16:47:49;12.90;;;3.37;;
15061;SDS011;7630;50.306;8.566;2023-11-19T16:51:51;11.67;;;3.00;;
15061;SDS011;7630;50.306;8.566;2023-11-19T16:55:52;10.87;;;3.23;;
15061;SDS011;7630;50.306;8.566;2023-11-19T16:59:53;7.83;;;3.00;;
15061;SDS011;7630;50.306;8.566;2023-11-19T17:03:57;15.40;;;4.27;;
15061;SDS011;7630;50.306;8.566;2023-11-19T17:08:01;12.57;;;4.13;;
15061;SDS011;7630;50.306;8.566;2023-11-19T17:12:02;13.17;;;3.97;;
15061;SDS011;7630;50.306;8.566;2023-11-19T17:16:04;6.73;;;3.20;;
15061;SDS011;7630;50.306;8.566;2023-11-19T17:20:07;10.07;;;3.43;;
15061;SDS011;7630;50.306;8.566;2023-11-19T17:24:09;10.40;;;3.27;;
15061;SDS011;7630;50.306;8.566;2023-11-19T17:28:10;8.33;;;3.30;;
15061;SDS011;7630;50.306;8.566;2023-11-19T17:32:12;15.63;;;7.33;;
15061;SDS011;7630;50.306;8.566;2023-11-19T17:36:13;12.07;;;3.67;;
15061;SDS011;7630;50.306;8.566;2023-11-19T17:40:14;12.53;;;5.17;;
15061;SDS011;7630;50.306;8.566;2023-11-19T17:44:17;13.63;;;3.40;;
15061;SDS011;7630;50.306;8.566;2023-11-19T17:48:18;4.47;;;2.63;;
15061;SDS011;7630;50.306;8.566;2023-11-19T17:52:20;10.73;;;3.73;;
15061;SDS011;7630;50.306;8.566;2023-11-19T17:56:21;14.10;;;3.80;;
15061;SDS011;7630;50.306;8.566;2023-11-19T18:00:22;7.17;;;2.63;;
15061;SDS011;7630;50.306;8.566;2023-11-19T18:04:24;8.10;;;3.33;;
15061;SDS011;7630;50.306;8.566;2023-11-19T18:08:28;15.13;;;4.10;;
15061;SDS011;7630;50.306;8.566;2023-11-19T18:12:29;9.83;;;3.07;;
15061;SDS011;7630;50.306;8.566;2023-11-19T18:16:30;12.03;;;2.97;;
15061;SDS011;7630;50.306;8.566;2023-11-19T18:20:32;9.13;;;2.80;;
15061;SDS011;7630;50.306;8.566;2023-11-19T18:24:33;8.73;;;2.67;;
15061;SDS011;7630;50.306;8.566;2023-11-19T18:28:36;14.80;;;3.97;;
15061;SDS011;7630;50.306;8.566;2023-11-19T18:32:37;7.77;;;3.03;;
15061;SDS011;7630;50.306;8.566;2023-11-19T18:36:39;15.67;;;7.30;;
15061;SDS011;7630;50.306;8.566;2023-11-19T18:40:41;9.80;;;3.87;;
15061;SDS011;7630;50.306;8.566;2023-11-19T18:44:42;14.07;;;3.43;;
15061;SDS011;7630;50.306;8.566;2023-11-19T18:48:43;11.07;;;3.50;;
15061;SDS011;7630;50.306;8.566;2023-11-19T18:52:44;13.23;;;3.83;;
15061;SDS011;7630;50.306;8.566;2023-11-19T18:56:45;13.60;;;4.53;;
15061;SDS011;7630;50.306;8.566;2023-11-19T19:00:46;12.77;;;4.03;;
15061;SDS011;7630;50.306;8.566;2023-11-19T19:04:47;13.07;;;4.47;;
15061;SDS011;7630;50.306;8.566;2023-11-19T19:08:48;11.93;;;3.77;;
15061;SDS011;7630;50.306;8.566;2023-11-19T19:12:50;12.50;;;3.83;;
15061;SDS011;7630;50.306;8.566;2023-11-19T19:16:52;16.47;;;3.93;;
15061;SDS011;7630;50.306;8.566;2023-11-19T19:20:54;13.73;;;3.30;;
15061;SDS011;7630;50.306;8.566;2023-11-19T19:24:55;15.07;;;4.40;;
15061;SDS011;7630;50.306;8.566;2023-11-19T19:28:57;10.43;;;3.50;;
15061;SDS011;7630;50.306;8.566;2023-11-19T19:32:58;18.83;;;3.97;;
15061;SDS011;7630;50.306;8.566;2023-11-19T19:37:00;14.27;;;4.27;;
15061;SDS011;7630;50.306;8.566;2023-11-19T19:41:01;18.97;;;4.13;;
15061;SDS011;7630;50.306;8.566;2023-11-19T19:45:08;10.37;;;3.07;;
15061;SDS011;7630;50.306;8.566;2023-11-19T19:49:10;12.90;;;4.13;;
15061;SDS011;7630;50.306;8.566;2023-11-19T19:53:11;8.80;;;3.27;;
15061;SDS011;7630;50.306;8.566;2023-11-19T19:57:12;12.83;;;3.17;;
15061;SDS011;7630;50.306;8.566;2023-11-19T20:01:13;10.50;;;3.03;;
15061;SDS011;7630;50.306;8.566;2023-11-19T20:05:14;13.60;;;4.30;;
15061;SDS011;7630;50.306;8.566;2023-11-19T20:09:16;15.77;;;3.43;;
15061;SDS011;7630;50.306;8.566;2023-11-19T20:13:17;10.30;;;3.23;;
15061;SDS011;7630;50.306;8.566;2023-11-19T20:17:18;6.17;;;3.50;;
15061;SDS011;7630;50.306;8.566;2023-11-19T20:21:20;12.47;;;5.67;;
15061;SDS011;7630;50.306;8.566;2023-11-19T20:25:21;16.70;;;5.00;;
15061;SDS011;7630;50.306;8.566;2023-11-19T20:29:22;10.27;;;3.60;;
15061;SDS011;7630;50.306;8.566;2023-11-19T20:33:26;11.20;;;3.53;;
15061;SDS011;7630;50.306;8.566;2023-11-19T20:37:27;15.50;;;4.77;;
15061;SDS011;7630;50.306;8.566;2023-11-19T20:41:30;11.03;;;3.20;;
15061;SDS011;7630;50.306;8.566;2023-11-19T20:45:31;8.03;;;2.77;;
15061;SDS011;7630;50.306;8.566;2023-11-19T20:49:32;22.73;;;7.63;;
15061;SDS011;7630;50.306;8.566;2023-11-19T20:53:34;15.47;;;3.73;;
15061;SDS011;7630;50.306;8.566;2023-11-19T20:57:35;11.27;;;4.07;;
15061;SDS011;7630;50.306;8.566;2023-11-19T21:01:36;7.90;;;3.97;;
15061;SDS011;7630;50.306;8.566;2023-11-19T21:05:37;16.27;;;5.60;;
15061;SDS011;7630;50.306;8.566;2023-11-19T21:09:39;15.83;;;4.17;;
15061;SDS011;7630;50.306;8.566;2023-11-19T21:13:40;13.77;;;4.43;;
15061;SDS011;7630;50.306;8.566;2023-11-19T21:17:42;10.87;;;5.23;;
15061;SDS011;7630;50.306;8.566;2023-11-19T21:21:43;7.40;;;3.57;;
15061;SDS011;7630;50.306;8.566;2023-11-19T21:25:44;7.53;;;2.97;;
15061;SDS011;7630;50.306;8.566;2023-11-19T21:29:46;12.70;;;3.93;;
15061;SDS011;7630;50.306;8.566;2023-11-19T21:33:47;15.60;;;4.50;;
15061;SDS011;7630;50.306;8.566;2023-11-19T21:37:48;7.93;;;2.47;;
15061;SDS011;7630;50.306;8.566;2023-11-19T21:41:50;7.83;;;2.67;;
15061;SDS011;7630;50.306;8.566;2023-11-19T21:45:53;11.33;;;3.33;;
15061;SDS011;7630;50.306;8.566;2023-11-19T21:49:55;13.50;;;2.80;;
15061;SDS011;7630;50.306;8.566;2023-11-19T21:53:56;9.90;;;2.97;;
15061;SDS011;7630;50.306;8.566;2023-11-19T21:57:57;11.50;;;3.17;;
15061;SDS011;7630;50.306;8.566;2023-11-19T22:01:58;15.40;;;3.50;;
15061;SDS011;7630;50.306;8.566;2023-11-19T22:06:00;10.13;;;3.20;;
15061;SDS011;7630;50.306;8.566;2023-11-19T22:10:01;7.77;;;3.27;;
15061;SDS011;7630;50.306;8.566;2023-11-19T22:14:05;9.57;;;2.67;;
15061;SDS011;7630;50.306;8.566;2023-11-19T22:18:06;8.13;;;2.87;;
15061;SDS011;7630;50.306;8.566;2023-11-19T22:22:07;8.83;;;3.30;;
15061;SDS011;7630;50.306;8.566;2023-11-19T22:26:09;13.57;;;4.00;;
15061;SDS011;7630;50.306;8.566;2023-11-19T22:30:10;8.83;;;3.73;;
15061;SDS011;7630;50.306;8.566;2023-11-19T22:34:12;12.43;;;2.93;;
15061;SDS011;7630;50.306;8.566;2023-11-19T22:38:13;12.50;;;3.10;;
15061;SDS011;7630;50.306;8.566;2023-11-19T22:42:15;7.60;;;2.67;;
15061;SDS011;7630;50.306;8.566;2023-11-19T22:46:16;5.77;;;3.00;;
15061;SDS011;7630;50.306;8.566;2023-11-19T22:50:19;8.87;;;4.83;;
15061;SDS011;7630;50.306;8.566;2023-11-19T22:54:20;8.43;;;2.87;;
15061;SDS011;7630;50.306;8.566;2023-11-19T22:58:21;11.40;;;3.73;;
15061;SDS011;7630;50.306;8.566;2023-11-19T23:02:23;7.97;;;2.03;;
15061;SDS011;7630;50.306;8.566;2023-11-19T23:06:24;7.60;;;2.50;;
15061;SDS011;7630;50.306;8.566;2023-11-19T23:10:25;8.30;;;2.90;;
15061;SDS011;7630;50.306;8.566;2023-11-19T23:14:27;5.53;;;2.63;;
15061;SDS011;7630;50.306;8.566;2023-11-19T23:18:28;8.70;;;2.93;;
15061;SDS011;7630;50.306;8.566;2023-11-19T23:22:29;6.27;;;2.70;;
15061;SDS011;7630;50.306;8.566;2023-11-19T23:26:32;8.90;;;2.67;;
15061;SDS011;7630;50.306;8.566;2023-11-19T23:30:33;7.87;;;2.60;;
15061;SDS011;7630;50.306;8.566;2023-11-19T23:34:34;6.47;;;2.80;;
15061;SDS011;7630;50.306;8.566;2023-11-19T23:38:39;5.97;;;2.17;;
15061;SDS011;7630;50.306;8.566;2023-11-19T23:42:40;15.57;;;6.40;;
15061;SDS011;7630;50.306;8.566;2023-11-19T23:46:42;7.67;;;2.27;;
15061;SDS011;7630;50.306;8.566;2023-11-19T23:50:43;8.83;;;2.87;;
15061;SDS011;7630;50.306;8.566;2023-11-19T23:54:46;5.23;;;2.30;;
15061;SDS011;7630;50.306;8.566;2023-11-19T23:58:48;5.57;;;2.60;;
